createdAt,value
2018-02-22T00:02:14.852Z,71.13
2018-02-22T00:04:42.511Z,62.37
2018-02-22T00:07:10.091Z,60.60
2018-02-22T00:09:38.448Z,64.70
2018-02-22T00:12:06.815Z,65.80
2018-02-22T00:14:34.433Z,64.73
2018-02-22T00:17:02.211Z,60.20
2018-02-22T00:19:29.796Z,59.33
2018-02-22T00:21:57.397Z,61.90
2018-02-22T00:24:25.002Z,61.77
2018-02-22T00:26:52.582Z,65.57
2018-02-22T00:29:20.186Z,59.70
2018-02-22T00:31:47.760Z,58.17
2018-02-22T00:34:15.348Z,56.97
2018-02-22T00:36:43.932Z,58.83
2018-02-22T00:39:12.263Z,59.73
2018-02-22T00:41:39.852Z,61.13
2018-02-22T00:44:07.475Z,61.57
2018-02-22T00:46:35.026Z,66.83
2018-02-22T00:49:03.371Z,66.93
2018-02-22T00:51:31.436Z,59.27
2018-02-22T00:53:59.061Z,60.73
2018-02-22T00:56:26.627Z,58.50
2018-02-22T00:58:54.519Z,60.10
2018-02-22T01:01:22.093Z,59.77
2018-02-22T01:03:49.652Z,64.17
2018-02-22T01:06:17.266Z,55.57
2018-02-22T01:08:44.834Z,55.10
2018-02-22T01:11:12.456Z,52.87
2018-02-22T01:13:40.804Z,53.83
2018-02-22T01:16:08.413Z,51.27
2018-02-22T01:18:36.003Z,51.27
2018-02-22T01:21:03.580Z,52.20
2018-02-22T01:23:31.154Z,56.60
2018-02-22T01:25:59.800Z,58.13
2018-02-22T01:28:27.401Z,56.33
2018-02-22T01:30:55.749Z,51.90
2018-02-22T01:33:23.515Z,56.50
2018-02-22T01:35:51.119Z,59.53
2018-02-22T01:38:18.695Z,59.27
2018-02-22T01:40:46.304Z,58.73
2018-02-22T01:43:15.388Z,52.97
2018-02-22T01:45:44.468Z,52.80
2018-02-22T01:48:12.442Z,57.30
2018-02-22T01:50:40.294Z,54.33
2018-02-22T01:53:07.912Z,60.53
2018-02-22T01:55:36.568Z,52.10
2018-02-22T01:58:04.148Z,56.97
2018-02-22T02:00:32.486Z,56.67
2018-02-22T02:03:00.361Z,52.93
2018-02-22T02:05:27.926Z,57.93
2018-02-22T02:07:55.492Z,50.57
2018-02-22T02:10:23.433Z,59.43
2018-02-22T02:12:51.012Z,55.67
2018-02-22T02:15:19.350Z,56.13
2018-02-22T02:17:46.962Z,52.80
2018-02-22T02:20:15.320Z,56.30
2018-02-22T02:22:42.896Z,55.10
2018-02-22T02:25:11.255Z,55.33
2018-02-22T02:27:39.586Z,52.67
2018-02-22T02:30:07.260Z,52.77
2018-02-22T02:32:35.121Z,53.53
2018-02-22T02:35:02.691Z,53.10
2018-02-22T02:37:30.287Z,57.53
2018-02-22T02:39:58.938Z,57.47
2018-02-22T02:42:26.534Z,54.27
2018-02-22T02:44:54.883Z,58.23
2018-02-22T02:47:22.611Z,52.43
2018-02-22T02:49:50.153Z,65.27
2018-02-22T02:52:18.537Z,59.50
2018-02-22T02:54:46.148Z,57.90
2018-02-22T02:57:13.774Z,56.33
2018-02-22T02:59:41.351Z,59.77
2018-02-22T03:02:08.974Z,55.90
2018-02-22T03:04:36.562Z,55.70
2018-02-22T03:07:04.147Z,52.60
2018-02-22T03:09:32.004Z,57.77
2018-02-22T03:11:59.705Z,51.30
2018-02-22T03:14:28.030Z,59.20
2018-02-22T03:16:55.631Z,61.60
2018-02-22T03:19:23.175Z,61.63
2018-02-22T03:21:50.752Z,64.70
2018-02-22T03:24:18.351Z,56.57
2018-02-22T03:26:45.924Z,56.70
2018-02-22T03:29:13.912Z,59.73
2018-02-22T03:31:41.491Z,59.20
2018-02-22T03:34:09.059Z,60.77
2018-02-22T03:36:37.424Z,65.20
2018-02-22T03:39:05.028Z,62.80
2018-02-22T03:41:32.599Z,65.97
2018-02-22T03:44:00.218Z,56.87
2018-02-22T03:46:28.565Z,60.63
2018-02-22T03:48:56.242Z,60.90
2018-02-22T03:51:24.124Z,63.93
2018-02-22T03:53:52.460Z,57.93
2018-02-22T03:56:20.061Z,57.00
2018-02-22T03:58:48.438Z,60.50
2018-02-22T04:01:16.772Z,54.00
2018-02-22T04:03:44.334Z,59.53
2018-02-22T04:06:12.297Z,64.37
2018-02-22T04:08:39.854Z,56.27
2018-02-22T04:11:07.423Z,58.67
2018-02-22T04:13:35.037Z,58.43
2018-02-22T04:16:02.715Z,54.27
2018-02-22T04:18:30.299Z,56.10
2018-02-22T04:20:57.871Z,57.13
2018-02-22T04:23:25.478Z,49.63
2018-02-22T04:25:53.802Z,61.33
2018-02-22T04:28:21.613Z,54.80
2018-02-22T04:30:49.189Z,57.67
2018-02-22T04:33:16.777Z,59.40
2018-02-22T04:35:44.743Z,61.13
2018-02-22T04:38:12.314Z,53.60
2018-02-22T04:40:39.878Z,60.93
2018-02-22T04:43:08.568Z,68.90
2018-02-22T04:45:37.981Z,56.83
2018-02-22T04:48:06.329Z,63.87
2018-02-22T04:50:34.036Z,56.43
2018-02-22T04:53:02.410Z,65.80
2018-02-22T04:55:30.750Z,56.20
2018-02-22T04:57:58.319Z,57.60
2018-02-22T05:00:25.970Z,60.57
2018-02-22T05:02:53.583Z,62.40
2018-02-22T05:05:21.529Z,65.87
2018-02-22T05:07:49.910Z,63.27
2018-02-22T05:10:18.295Z,59.37
2018-02-22T05:12:46.660Z,63.87
2018-02-22T05:15:15.015Z,59.50
2018-02-22T05:17:42.627Z,61.23
2018-02-22T05:20:10.221Z,62.07
2018-02-22T05:22:37.784Z,62.33
2018-02-22T05:25:05.386Z,54.43
2018-02-22T05:27:33.769Z,66.30
2018-02-22T05:30:01.411Z,61.53
2018-02-22T05:32:28.945Z,60.47
2018-02-22T05:34:56.551Z,60.73
2018-02-22T05:37:24.140Z,63.20
2018-02-22T05:39:51.737Z,65.70
2018-02-22T05:42:20.498Z,59.77
2018-02-22T05:44:48.106Z,69.50
2018-02-22T05:47:16.447Z,64.53
2018-02-22T05:49:45.564Z,66.97
2018-02-22T05:52:14.236Z,56.40
2018-02-22T05:54:41.812Z,58.90
2018-02-22T05:57:10.138Z,72.73
2018-02-22T05:59:38.036Z,67.40
2018-02-22T06:02:06.372Z,71.27
2018-02-22T06:04:33.940Z,66.67
2018-02-22T06:07:01.556Z,67.30
2018-02-22T06:09:29.901Z,65.23
2018-02-22T06:11:57.501Z,69.60
2018-02-22T06:14:25.427Z,67.10
2018-02-22T06:16:53.003Z,68.10
2018-02-22T06:19:20.592Z,67.47
2018-02-22T06:21:48.203Z,76.67
2018-02-22T06:24:15.922Z,65.50
2018-02-22T06:26:43.495Z,68.63
2018-02-22T06:29:11.119Z,73.13
2018-02-22T06:31:39.469Z,71.57
2018-02-22T06:34:07.056Z,67.27
2018-02-22T06:36:35.519Z,72.70
2018-02-22T06:39:03.071Z,68.60
2018-02-22T06:41:31.435Z,80.93
2018-02-22T06:43:59.003Z,71.03
2018-02-22T06:46:27.372Z,69.13
2018-02-22T06:48:54.934Z,75.47
2018-02-22T06:51:22.598Z,65.77
2018-02-22T06:53:50.563Z,70.07
2018-02-22T06:56:18.137Z,78.97
2018-02-22T06:58:45.693Z,75.40
2018-02-22T07:01:13.549Z,71.33
2018-02-22T07:03:41.119Z,72.53
2018-02-22T07:06:09.454Z,68.20
2018-02-22T07:08:37.050Z,74.93
2018-02-22T07:11:04.610Z,70.77
2018-02-22T07:13:32.229Z,80.07
2018-02-22T07:16:00.132Z,63.27
2018-02-22T07:18:27.711Z,71.57
2018-02-22T07:20:56.029Z,75.47
2018-02-22T07:23:23.640Z,67.07
2018-02-22T07:25:52.003Z,77.50
2018-02-22T07:28:19.584Z,70.00
2018-02-22T07:30:47.962Z,82.30
2018-02-22T07:33:16.295Z,72.00
2018-02-22T07:35:43.874Z,74.33
2018-02-22T07:38:11.488Z,69.57
2018-02-22T07:40:40.088Z,70.40
2018-02-22T07:43:08.176Z,75.70
2018-02-22T07:45:35.751Z,68.17
2018-02-22T07:48:03.341Z,72.70
2018-02-22T07:50:30.920Z,75.83
2018-02-22T07:52:58.506Z,71.77
2018-02-22T07:55:26.496Z,72.03
2018-02-22T07:57:54.070Z,65.60
2018-02-22T08:00:22.398Z,73.50
2018-02-22T08:02:50.453Z,70.60
2018-02-22T08:05:18.021Z,71.33
2018-02-22T08:07:45.596Z,72.17
2018-02-22T08:10:13.251Z,69.27
2018-02-22T08:12:40.814Z,69.57
2018-02-22T08:15:08.387Z,76.80
2018-02-22T08:17:35.999Z,78.07
2018-02-22T08:20:03.632Z,71.93
2018-02-22T08:22:31.354Z,67.47
2018-02-22T08:24:58.923Z,77.07
2018-02-22T08:27:26.535Z,60.30
2018-02-22T08:29:54.140Z,64.53
2018-02-22T08:32:21.715Z,62.13
2018-02-22T08:34:49.302Z,61.50
2018-02-22T08:37:17.659Z,56.23
2018-02-22T08:39:45.221Z,67.57
2018-02-22T08:42:12.834Z,60.70
2018-02-22T08:44:40.418Z,58.73
2018-02-22T08:47:08.302Z,54.77
2018-02-22T08:49:35.880Z,58.30
2018-02-22T08:52:04.224Z,57.10
2018-02-22T08:54:32.643Z,56.57
2018-02-22T08:57:00.305Z,53.53
2018-02-22T08:59:28.678Z,51.67
2018-02-22T09:01:57.065Z,44.00
2018-02-22T09:04:24.630Z,44.50
2018-02-22T09:06:52.241Z,43.67
2018-02-22T09:09:19.796Z,41.97
2018-02-22T09:11:47.392Z,46.80
2018-02-22T09:14:15.763Z,43.43
2018-02-22T09:16:44.105Z,44.73
2018-02-22T09:19:11.688Z,44.50
2018-02-22T09:21:40.063Z,42.13
2018-02-22T09:24:08.410Z,42.90
2018-02-22T09:26:36.051Z,46.07
2018-02-22T09:29:03.831Z,45.70
2018-02-22T09:31:31.502Z,43.10
2018-02-22T09:33:59.079Z,49.37
2018-02-22T09:36:26.707Z,39.33
2018-02-22T09:38:54.296Z,49.17
2018-02-22T09:41:21.876Z,47.53
2018-02-22T09:43:50.289Z,51.70
2018-02-22T09:46:17.870Z,40.10
2018-02-22T09:48:45.481Z,48.97
2018-02-22T09:51:13.058Z,42.07
2018-02-22T09:53:40.618Z,41.10
2018-02-22T09:56:08.250Z,39.13
2018-02-22T09:58:36.583Z,36.20
2018-02-22T10:01:04.160Z,38.47
2018-02-22T10:03:31.902Z,34.60
2018-02-22T10:05:59.497Z,35.70
2018-02-22T10:08:27.846Z,36.27
2018-02-22T10:10:55.716Z,38.57
2018-02-22T10:13:23.312Z,34.40
2018-02-22T10:15:51.652Z,34.40
2018-02-22T10:18:19.527Z,43.03
2018-02-22T10:20:47.128Z,36.10
2018-02-22T10:23:14.738Z,31.10
2018-02-22T10:25:42.359Z,40.00
2018-02-22T10:28:10.213Z,35.37
2018-02-22T10:30:37.779Z,38.43
2018-02-22T10:33:05.346Z,38.87
2018-02-22T10:35:33.255Z,35.43
2018-02-22T10:38:00.827Z,38.27
2018-02-22T10:40:28.386Z,47.10
2018-02-22T10:42:56.339Z,39.13
2018-02-22T10:45:23.915Z,35.30
2018-02-22T10:47:51.518Z,44.13
2018-02-22T10:50:19.402Z,38.57
2018-02-22T10:52:46.977Z,36.70
2018-02-22T10:55:14.923Z,35.83
2018-02-22T10:57:42.561Z,34.30
2018-02-22T11:00:10.140Z,32.40
2018-02-22T11:02:47.276Z,31.20
2018-02-22T11:05:15.623Z,28.60
2018-02-22T11:07:43.197Z,33.23
2018-02-22T11:10:10.807Z,31.90
2018-02-22T11:12:38.374Z,27.13
2018-02-22T11:15:05.984Z,30.17
2018-02-22T11:17:34.334Z,30.80
2018-02-22T11:20:02.177Z,30.23
2018-02-22T11:22:29.827Z,35.80
2018-02-22T11:24:57.427Z,26.40
2018-02-22T11:27:25.017Z,27.53
2018-02-22T11:29:53.442Z,23.33
2018-02-22T11:32:21.026Z,24.87
2018-02-22T11:34:48.586Z,25.00
2018-02-22T11:37:17.988Z,27.37
2018-02-22T11:39:46.329Z,26.40
2018-02-22T11:42:13.907Z,25.87
2018-02-22T11:44:41.783Z,31.57
2018-02-22T11:47:11.240Z,26.70
2018-02-22T11:49:38.858Z,30.60
2018-02-22T11:52:06.807Z,29.00
2018-02-22T11:54:34.388Z,30.97
2018-02-22T11:57:01.959Z,32.07
2018-02-22T11:59:30.345Z,31.97
2018-02-22T12:01:58.688Z,33.37
2018-02-22T12:04:26.250Z,31.67
2018-02-22T12:06:54.625Z,33.20
2018-02-22T12:09:22.194Z,27.27
2018-02-22T12:11:49.789Z,34.17
2018-02-22T12:14:17.397Z,30.40
2018-02-22T12:16:45.027Z,31.60
2018-02-22T12:19:12.595Z,24.63
2018-02-22T12:21:40.215Z,26.80
2018-02-22T12:24:08.589Z,27.63
2018-02-22T12:26:36.932Z,27.67
2018-02-22T12:29:04.518Z,25.50
2018-02-22T12:31:32.873Z,26.80
2018-02-22T12:34:00.456Z,27.83
2018-02-22T12:36:29.116Z,24.23
2018-02-22T12:38:58.188Z,25.73
2018-02-22T12:41:25.770Z,26.43
2018-02-22T12:43:55.422Z,24.00
2018-02-22T12:46:23.716Z,24.83
2018-02-22T12:48:51.285Z,20.90
2018-02-22T12:51:19.166Z,20.33
2018-02-22T12:53:47.692Z,28.20
2018-02-22T12:56:16.052Z,24.03
2018-02-22T12:58:43.895Z,22.43
2018-02-22T13:01:11.457Z,22.60
2018-02-22T13:03:39.013Z,22.50
2018-02-22T13:06:06.658Z,25.40
2018-02-22T13:08:34.220Z,23.70
2018-02-22T13:11:01.801Z,24.47
2018-02-22T13:13:29.664Z,23.67
2018-02-22T13:15:57.232Z,27.67
2018-02-22T13:18:24.806Z,22.07
2018-02-22T13:20:53.181Z,21.90
2018-02-22T13:23:21.522Z,25.60
2018-02-22T13:25:49.082Z,20.97
2018-02-22T13:28:16.697Z,22.13
2018-02-22T13:30:44.308Z,20.07
2018-02-22T13:33:23.740Z,21.40
2018-02-22T13:35:51.370Z,22.27
2018-02-22T13:38:30.952Z,19.30
2018-02-22T13:40:58.563Z,20.20
2018-02-22T13:43:26.156Z,25.00
2018-02-22T13:45:53.757Z,20.77
2018-02-22T13:48:22.174Z,17.27
2018-02-22T13:51:01.725Z,20.17
2018-02-22T13:53:29.489Z,18.07
2018-02-22T13:55:57.095Z,17.87
2018-02-22T13:58:25.440Z,20.57
2018-02-22T14:01:04.926Z,19.83
2018-02-22T14:03:32.500Z,19.60
2018-02-22T14:06:00.092Z,21.37
2018-02-22T14:08:39.353Z,20.97
2018-02-22T14:11:07.693Z,20.90
2018-02-22T14:13:35.286Z,22.43
2018-02-22T14:16:03.255Z,21.87
2018-02-22T14:18:30.818Z,20.47
2018-02-22T14:20:59.160Z,19.10
2018-02-22T14:23:26.753Z,18.37
2018-02-22T14:25:55.081Z,22.33
2018-02-22T14:28:22.645Z,22.20
2018-02-22T14:30:50.271Z,25.63
2018-02-22T14:33:18.631Z,21.77
2018-02-22T14:35:46.975Z,22.63
2018-02-22T14:38:14.597Z,20.23
2018-02-22T14:40:42.190Z,20.30
2018-02-22T14:43:09.833Z,23.33
2018-02-22T14:45:37.419Z,22.20
2018-02-22T14:48:06.549Z,23.07
2018-02-22T14:50:34.888Z,26.10
2018-02-22T14:53:02.472Z,23.03
2018-02-22T14:55:30.855Z,26.17
2018-02-22T14:57:59.191Z,22.53
2018-02-22T15:00:26.795Z,23.10
2018-02-22T15:02:55.116Z,21.93
2018-02-22T15:05:22.701Z,21.93
2018-02-22T15:07:50.280Z,24.90
2018-02-22T15:10:18.945Z,24.20
2018-02-22T15:12:46.524Z,22.03
2018-02-22T15:15:14.853Z,27.23
2018-02-22T15:17:42.475Z,26.90
2018-02-22T15:20:10.848Z,23.23
2018-02-22T15:22:39.186Z,23.03
2018-02-22T15:25:06.749Z,23.70
2018-02-22T15:27:34.338Z,22.97
2018-02-22T15:30:02.683Z,22.17
2018-02-22T15:32:30.247Z,23.73
2018-02-22T15:34:57.854Z,22.67
2018-02-22T15:37:25.810Z,23.97
2018-02-22T15:39:54.168Z,25.90
2018-02-22T15:42:22.719Z,22.60
2018-02-22T15:44:50.297Z,25.27
2018-02-22T15:47:17.912Z,27.43
2018-02-22T15:49:45.478Z,29.53
2018-02-22T15:52:13.087Z,31.40
2018-02-22T15:54:40.643Z,27.50
2018-02-22T15:57:09.807Z,24.97
2018-02-22T15:59:37.403Z,30.30
2018-02-22T16:02:05.753Z,30.20
2018-02-22T16:04:33.364Z,32.03
2018-02-22T16:07:00.963Z,31.43
2018-02-22T16:09:28.538Z,38.10
2018-02-22T16:11:56.141Z,32.20
2018-02-22T16:14:23.712Z,36.83
2018-02-22T16:16:51.277Z,37.80
2018-02-22T16:19:18.881Z,35.80
2018-02-22T16:21:46.460Z,37.90
2018-02-22T16:24:14.794Z,39.43
2018-02-22T16:26:42.453Z,37.87
2018-02-22T16:29:10.094Z,32.20
2018-02-22T16:31:37.714Z,33.80
2018-02-22T16:34:06.064Z,37.70
2018-02-22T16:36:33.914Z,39.93
2018-02-22T16:39:01.513Z,35.77
2018-02-22T16:41:29.858Z,33.97
2018-02-22T16:43:57.464Z,36.27
2018-02-22T16:46:25.800Z,36.40
2018-02-22T16:48:53.419Z,44.83
2018-02-22T16:51:21.155Z,38.03
2018-02-22T16:53:49.495Z,38.40
2018-02-22T16:56:17.070Z,43.33
2018-02-22T16:58:44.679Z,40.80
2018-02-22T17:01:12.248Z,43.77
2018-02-22T17:03:39.861Z,43.17
2018-02-22T17:06:08.203Z,43.33
2018-02-22T17:08:35.783Z,41.10
2018-02-22T17:11:03.402Z,48.77
2018-02-22T17:13:30.960Z,41.83
2018-02-22T17:15:58.820Z,47.77
2018-02-22T17:18:26.395Z,44.03
2018-02-22T17:20:53.969Z,41.07
2018-02-22T17:23:21.604Z,43.50
2018-02-22T17:25:54.832Z,44.57
2018-02-22T17:28:28.071Z,46.93
2018-02-22T17:31:01.157Z,51.47
2018-02-22T17:33:28.754Z,51.30
2018-02-22T17:36:12.192Z,48.47
2018-02-22T17:38:59.825Z,48.67
2018-02-22T17:41:44.163Z,47.30
2018-02-22T17:44:12.056Z,54.83
2018-02-22T17:46:39.638Z,47.83
2018-02-22T17:49:08.056Z,43.53
2018-02-22T17:51:35.661Z,53.00
2018-02-22T17:54:03.219Z,55.47
2018-02-22T17:56:30.792Z,54.07
2018-02-22T17:58:59.165Z,50.50
2018-02-22T18:01:26.725Z,52.50
2018-02-22T18:03:55.271Z,52.53
2018-02-22T18:06:22.851Z,49.40
2018-02-22T18:08:50.442Z,53.57
2018-02-22T18:11:19.177Z,48.83
2018-02-22T18:13:46.758Z,53.20
2018-02-22T18:16:14.429Z,51.00
2018-02-22T18:18:42.798Z,55.13
2018-02-22T18:21:11.144Z,55.63
2018-02-22T18:23:38.735Z,49.60
2018-02-22T18:26:06.345Z,50.10
2018-02-22T18:28:33.932Z,52.80
2018-02-22T18:31:01.602Z,49.13
2018-02-22T18:33:29.208Z,55.50
2018-02-22T18:35:56.808Z,49.20
2018-02-22T18:38:24.455Z,50.60
2018-02-22T18:40:57.764Z,50.03
2018-02-22T18:43:31.399Z,57.10
2018-02-22T18:45:59.743Z,50.80
2018-02-22T18:48:27.320Z,50.93
2018-02-22T18:50:55.184Z,49.93
2018-02-22T18:53:22.762Z,51.27
2018-02-22T18:55:50.366Z,56.60
2018-02-22T18:58:18.347Z,67.33
2018-02-22T19:00:45.929Z,56.83
2018-02-22T19:03:15.386Z,60.93
2018-02-22T19:05:42.996Z,60.87
2018-02-22T19:08:10.662Z,66.27
2018-02-22T19:10:38.274Z,63.43
2018-02-22T19:13:06.032Z,57.93
2018-02-22T19:15:33.619Z,58.80
2018-02-22T19:18:01.195Z,62.83
2018-02-22T19:20:28.799Z,54.73
2018-02-22T19:22:56.469Z,67.53
2018-02-22T19:25:24.084Z,61.70
2018-02-22T19:27:52.507Z,68.13
2018-02-22T19:30:20.284Z,63.13
2018-02-22T19:32:47.880Z,62.87
2018-02-22T19:35:16.228Z,66.87
2018-02-22T19:37:43.965Z,69.13
2018-02-22T19:40:11.557Z,70.53
2018-02-22T19:42:39.152Z,71.67
2018-02-22T19:45:07.802Z,66.77
2018-02-22T19:47:35.436Z,66.80
2018-02-22T19:50:03.018Z,68.53
2018-02-22T19:52:30.629Z,73.97
2018-02-22T19:54:58.459Z,69.87
2018-02-22T19:57:26.816Z,69.67
2018-02-22T19:59:54.432Z,69.10
2018-02-22T20:02:22.786Z,67.47
2018-02-22T20:04:50.575Z,74.33
2018-02-22T20:07:18.918Z,73.60
2018-02-22T20:09:46.507Z,74.60
2018-02-22T20:12:14.956Z,73.67
2018-02-22T20:14:42.541Z,79.30
2018-02-22T20:17:10.855Z,77.00
2018-02-22T20:19:38.947Z,84.03
2018-02-22T20:22:06.644Z,77.33
2018-02-22T20:24:35.013Z,83.70
2018-02-22T20:27:02.791Z,74.03
2018-02-22T20:29:31.259Z,74.97
2018-02-22T20:31:59.613Z,80.27
2018-02-22T20:34:27.224Z,80.47
2018-02-22T20:36:54.832Z,83.30
2018-02-22T20:39:22.409Z,72.07
2018-02-22T20:41:50.343Z,75.60
2018-02-22T20:44:19.931Z,70.10
2018-02-22T20:46:47.561Z,73.40
2018-02-22T20:49:15.211Z,72.30
2018-02-22T20:51:49.027Z,74.43
2018-02-22T20:54:17.527Z,78.97
2018-02-22T20:56:45.107Z,75.80
2018-02-22T20:59:12.718Z,74.53
2018-02-22T21:01:41.243Z,81.63
2018-02-22T21:04:10.166Z,72.80
2018-02-22T21:06:38.135Z,72.83
2018-02-22T21:09:05.767Z,77.63
2018-02-22T21:11:33.356Z,70.93
2018-02-22T21:14:00.962Z,75.37
2018-02-22T21:16:28.561Z,78.10
2018-02-22T21:18:56.141Z,76.10
2018-02-22T21:21:24.101Z,70.93
2018-02-22T21:23:53.198Z,83.43
2018-02-22T21:26:20.827Z,82.67
2018-02-22T21:28:48.685Z,70.20
2018-02-22T21:31:16.253Z,76.33
2018-02-22T21:33:43.818Z,77.90
2018-02-22T21:36:11.452Z,85.90
2018-02-22T21:38:39.088Z,81.83
2018-02-22T21:41:07.428Z,82.33
2018-02-22T21:43:35.367Z,86.03
2018-02-22T21:46:02.925Z,81.47
2018-02-22T21:48:30.483Z,85.23
2018-02-22T21:50:58.484Z,92.30
2018-02-22T21:53:26.065Z,81.40
2018-02-22T21:55:54.419Z,74.20
2018-02-22T21:58:22.025Z,88.17
2018-02-22T22:00:49.610Z,90.50
2018-02-22T22:03:17.264Z,89.10
2018-02-22T22:05:44.869Z,91.17
2018-02-22T22:08:12.584Z,82.10
2018-02-22T22:10:40.171Z,95.63
2018-02-22T22:13:07.819Z,84.40
2018-02-22T22:15:35.465Z,92.27
2018-02-22T22:18:03.139Z,88.43
2018-02-22T22:20:30.991Z,84.83
2018-02-22T22:22:58.583Z,89.60
2018-02-22T22:25:26.170Z,86.37
2018-02-22T22:27:54.794Z,92.87
2018-02-22T22:30:22.385Z,88.60
2018-02-22T22:32:49.973Z,87.00
2018-02-22T22:35:18.350Z,95.33
2018-02-22T22:37:46.845Z,85.97
2018-02-22T22:40:14.448Z,83.60
2018-02-22T22:42:42.325Z,91.53
2018-02-22T22:45:09.902Z,96.50
2018-02-22T22:47:38.627Z,97.60
2018-02-22T22:50:06.312Z,97.23
2018-02-22T22:52:33.874Z,90.87
2018-02-22T22:55:01.438Z,88.00
2018-02-22T22:57:29.297Z,90.60
2018-02-22T22:59:56.870Z,86.00
2018-02-22T23:02:24.433Z,98.67
2018-02-22T23:04:52.049Z,97.40
2018-02-22T23:07:19.658Z,104.90
2018-02-22T23:09:47.228Z,103.23
2018-02-22T23:12:14.826Z,97.30
2018-02-22T23:14:42.828Z,107.57
2018-02-22T23:17:10.413Z,104.40
2018-02-22T23:19:38.663Z,97.70
2018-02-22T23:22:06.252Z,105.63
2018-02-22T23:24:33.837Z,95.47
2018-02-22T23:27:02.293Z,94.37
2018-02-22T23:29:29.873Z,109.87
2018-02-22T23:31:58.217Z,101.40
2018-02-22T23:34:25.833Z,103.07
2018-02-22T23:36:53.410Z,102.33
2018-02-22T23:39:20.991Z,104.60
2018-02-22T23:42:06.335Z,106.57
2018-02-22T23:44:33.942Z,108.07
2018-02-22T23:47:01.523Z,106.93
2018-02-22T23:49:29.896Z,108.40
2018-02-22T23:51:58.235Z,117.60
2018-02-22T23:54:25.844Z,109.17
2018-02-22T23:56:53.449Z,107.57
2018-02-22T23:59:21.017Z,109.27
